Terminal Aerodrome Forecast
Issued by NWS Cheyenne, WY

Home | Current Version | Previous Version | Text Only | Print | Product List | Glossary On
Versions: 1 2 3 4 5 6 7 8 9 10 11 12 13 14 15 16 17 18 19 20 21 22 23 24 25 26 27 28
000
FTUS45 KCYS 161337 AAA
TAFCYS
TAF AMD
KCYS 161337Z 1614/1712 VRB05KT P6SM BKN150
     FM161700 03011KT P6SM BKN100
     FM170000 07009KT P6SM VCSH OVC080
     FM170500 07008KT 4SM -FZDZ OVC004
     FM170800 07007KT 2SM -FZDZ OVC002=

USA.gov is the U.S. government's official web portal to all federal, state and local government web resources and services.